Weather at Copenhagen Kastrup Airport

Public forecast

Using degrees Celsius for public forecast. Weather courtesy of forecast.io.

Current aviation weather report (METAR) for Copenhagen Kastrup Airport

Retrieved 2021/07/27 08:20 UTC (13 minutes ago):

EKCH 270820Z AUTO 18005KT 9999 FEW005/// SCT110/// 21/20 Q1009 TEMPO BKN005

Aviation forecast (TAF) for Copenhagen Kastrup Airport

Retrieved 2021/07/27 06:30 UTC (2 hours ago):

TAF EKCH 270510Z 2706/2806 VRB02KT 9999 SCT030 TEMPO 2712/2718 20015G25KT SHRA SCT030CB